sensor_id;sensor_type;location;lat;lon;timestamp;temperature;humidity
20442;DHT22;10380;52.102;20.614;2024-03-08T00:00:13;-0.40;99.90
20442;DHT22;10380;52.102;20.614;2024-03-08T00:02:43;-0.50;99.90
20442;DHT22;10380;52.102;20.614;2024-03-08T00:07:38;-0.50;99.90
20442;DHT22;10380;52.102;20.614;2024-03-08T00:10:07;-0.60;99.90
20442;DHT22;10380;52.102;20.614;2024-03-08T00:12:43;-0.50;99.90
20442;DHT22;10380;52.102;20.614;2024-03-08T00:15:11;-0.70;99.90
20442;DHT22;10380;52.102;20.614;2024-03-08T00:17:43;-0.10;99.90
20442;DHT22;10380;52.102;20.614;2024-03-08T00:20:10;-0.60;99.90
20442;DHT22;10380;52.102;20.614;2024-03-08T00:22:38;-1.30;99.90
20442;DHT22;10380;52.102;20.614;2024-03-08T00:25:06;-0.60;99.90
20442;DHT22;10380;52.102;20.614;2024-03-08T00:27:36;-0.60;99.90
20442;DHT22;10380;52.102;20.614;2024-03-08T00:30:03;-0.60;99.90
20442;DHT22;10380;52.102;20.614;2024-03-08T00:32:31;-0.70;99.90
20442;DHT22;10380;52.102;20.614;2024-03-08T00:34:58;-0.70;99.90
20442;DHT22;10380;52.102;20.614;2024-03-08T00:39:53;-1.60;99.90
20442;DHT22;10380;52.102;20.614;2024-03-08T00:44:48;-0.80;99.90
20442;DHT22;10380;52.102;20.614;2024-03-08T00:52:13;-0.80;99.90
20442;DHT22;10380;52.102;20.614;2024-03-08T00:54:41;-0.80;99.90
20442;DHT22;10380;52.102;20.614;2024-03-08T00:59:40;-0.70;99.90
20442;DHT22;10380;52.102;20.614;2024-03-08T01:19:24;-1.00;99.90
20442;DHT22;10380;52.102;20.614;2024-03-08T01:21:51;-1.00;99.90
20442;DHT22;10380;52.102;20.614;2024-03-08T01:36:37;-1.10;99.90
20442;DHT22;10380;52.102;20.614;2024-03-08T01:39:07;-1.20;99.90
20442;DHT22;10380;52.102;20.614;2024-03-08T01:41:35;-1.40;99.90
20442;DHT22;10380;52.102;20.614;2024-03-08T01:44:03;-0.50;99.90
20442;DHT22;10380;52.102;20.614;2024-03-08T01:46:31;-1.20;99.90
20442;DHT22;10380;52.102;20.614;2024-03-08T01:48:58;-1.20;99.90
20442;DHT22;10380;52.102;20.614;2024-03-08T01:51:29;-1.50;99.90
20442;DHT22;10380;52.102;20.614;2024-03-08T01:53:56;-1.20;99.90
20442;DHT22;10380;52.102;20.614;2024-03-08T01:56:25;-1.40;99.90
20442;DHT22;10380;52.102;20.614;2024-03-08T01:58:52;-1.30;99.90
20442;DHT22;10380;52.102;20.614;2024-03-08T02:08:43;-1.10;99.90
20442;DHT22;10380;52.102;20.614;2024-03-08T02:13:39;-1.30;99.90
20442;DHT22;10380;52.102;20.614;2024-03-08T02:16:06;-1.60;99.90
20442;DHT22;10380;52.102;20.614;2024-03-08T02:21:05;-1.40;99.90
20442;DHT22;10380;52.102;20.614;2024-03-08T02:23:32;-1.50;99.90
20442;DHT22;10380;52.102;20.614;2024-03-08T02:26:00;-1.50;99.90
20442;DHT22;10380;52.102;20.614;2024-03-08T02:28:27;-2.00;99.90
20442;DHT22;10380;52.102;20.614;2024-03-08T02:30:55;-1.70;99.90
20442;DHT22;10380;52.102;20.614;2024-03-08T02:33:24;-1.90;99.90
20442;DHT22;10380;52.102;20.614;2024-03-08T02:38:21;-1.90;99.90
20442;DHT22;10380;52.102;20.614;2024-03-08T02:40:50;-1.90;99.90
20442;DHT22;10380;52.102;20.614;2024-03-08T02:43:19;-0.30;99.90
20442;DHT22;10380;52.102;20.614;2024-03-08T02:48:14;-1.90;99.90
20442;DHT22;10380;52.102;20.614;2024-03-08T02:53:13;-2.20;99.90
20442;DHT22;10380;52.102;20.614;2024-03-08T02:55:41;-1.70;99.90
20442;DHT22;10380;52.102;20.614;2024-03-08T02:58:08;-1.80;99.90
20442;DHT22;10380;52.102;20.614;2024-03-08T03:00:37;-2.00;99.90
20442;DHT22;10380;52.102;20.614;2024-03-08T03:03:06;-1.70;99.90
20442;DHT22;10380;52.102;20.614;2024-03-08T03:05:34;-2.00;99.90
20442;DHT22;10380;52.102;20.614;2024-03-08T03:08:01;-2.00;99.90
20442;DHT22;10380;52.102;20.614;2024-03-08T03:10:30;-1.90;99.90
20442;DHT22;10380;52.102;20.614;2024-03-08T03:12:57;-2.20;99.90
20442;DHT22;10380;52.102;20.614;2024-03-08T03:15:24;-1.90;99.90
20442;DHT22;10380;52.102;20.614;2024-03-08T03:20:22;-2.00;99.90
20442;DHT22;10380;52.102;20.614;2024-03-08T03:23:00;-1.90;99.90
20442;DHT22;10380;52.102;20.614;2024-03-08T03:25:29;-1.90;99.90
20442;DHT22;10380;52.102;20.614;2024-03-08T03:28:03;-1.90;99.90
20442;DHT22;10380;52.102;20.614;2024-03-08T03:30:31;-1.80;99.90
20442;DHT22;10380;52.102;20.614;2024-03-08T03:33:02;-2.00;99.90
20442;DHT22;10380;52.102;20.614;2024-03-08T03:35:34;-2.10;99.90
20442;DHT22;10380;52.102;20.614;2024-03-08T03:40:38;-2.00;99.90
20442;DHT22;10380;52.102;20.614;2024-03-08T03:43:06;-2.00;99.90
20442;DHT22;10380;52.102;20.614;2024-03-08T03:45:34;-2.00;99.90
20442;DHT22;10380;52.102;20.614;2024-03-08T03:48:06;-1.90;99.90
20442;DHT22;10380;52.102;20.614;2024-03-08T03:53:04;-1.80;99.90
20442;DHT22;10380;52.102;20.614;2024-03-08T03:55:35;-1.90;99.90
20442;DHT22;10380;52.102;20.614;2024-03-08T03:58:03;-1.90;99.90
20442;DHT22;10380;52.102;20.614;2024-03-08T04:00:30;-2.00;99.90
20442;DHT22;10380;52.102;20.614;2024-03-08T04:10:23;-2.00;99.90
20442;DHT22;10380;52.102;20.614;2024-03-08T04:15:19;-2.00;99.90
20442;DHT22;10380;52.102;20.614;2024-03-08T04:20:14;-2.20;99.90
20442;DHT22;10380;52.102;20.614;2024-03-08T04:22:42;-2.20;99.90
20442;DHT22;10380;52.102;20.614;2024-03-08T04:30:08;-2.20;99.90
20442;DHT22;10380;52.102;20.614;2024-03-08T04:35:03;-2.30;99.90
20442;DHT22;10380;52.102;20.614;2024-03-08T04:42:29;-2.40;99.90
20442;DHT22;10380;52.102;20.614;2024-03-08T04:47:27;-2.40;99.90
20442;DHT22;10380;52.102;20.614;2024-03-08T04:52:23;-2.30;99.90
20442;DHT22;10380;52.102;20.614;2024-03-08T04:57:17;-2.40;99.90
20442;DHT22;10380;52.102;20.614;2024-03-08T05:09:37;-2.20;99.90
20442;DHT22;10380;52.102;20.614;2024-03-08T05:12:04;-2.40;99.90
20442;DHT22;10380;52.102;20.614;2024-03-08T05:14:31;-2.20;99.90
20442;DHT22;10380;52.102;20.614;2024-03-08T05:17:00;-2.40;99.90
20442;DHT22;10380;52.102;20.614;2024-03-08T05:22:00;-2.30;99.90
20442;DHT22;10380;52.102;20.614;2024-03-08T05:26:58;-2.30;99.90
20442;DHT22;10380;52.102;20.614;2024-03-08T05:31:55;-2.40;99.90
20442;DHT22;10380;52.102;20.614;2024-03-08T05:44:17;-2.30;99.90
20442;DHT22;10380;52.102;20.614;2024-03-08T05:46:44;-2.30;99.90
20442;DHT22;10380;52.102;20.614;2024-03-08T05:54:10;-2.10;99.90
20442;DHT22;10380;52.102;20.614;2024-03-08T05:56:40;-2.10;99.90
20442;DHT22;10380;52.102;20.614;2024-03-08T05:59:12;-1.90;99.90
20442;DHT22;10380;52.102;20.614;2024-03-08T06:04:09;-2.00;99.90
20442;DHT22;10380;52.102;20.614;2024-03-08T06:06:39;-1.70;99.90
20442;DHT22;10380;52.102;20.614;2024-03-08T06:11:39;-1.80;99.90
20442;DHT22;10380;52.102;20.614;2024-03-08T06:14:06;-1.60;99.90
20442;DHT22;10380;52.102;20.614;2024-03-08T06:23:59;-1.30;99.90
20442;DHT22;10380;52.102;20.614;2024-03-08T06:28:58;-1.20;99.90
20442;DHT22;10380;52.102;20.614;2024-03-08T06:31:25;-0.90;99.90
20442;DHT22;10380;52.102;20.614;2024-03-08T06:38:52;-0.70;99.90
20442;DHT22;10380;52.102;20.614;2024-03-08T06:56:09;0.00;99.90
20442;DHT22;10380;52.102;20.614;2024-03-08T07:01:03;0.10;99.90
20442;DHT22;10380;52.102;20.614;2024-03-08T07:03:34;0.20;99.90
20442;DHT22;10380;52.102;20.614;2024-03-08T07:06:02;0.30;99.90
20442;DHT22;10380;52.102;20.614;2024-03-08T07:18:27;0.50;99.90
20442;DHT22;10380;52.102;20.614;2024-03-08T07:26:15;0.70;99.90
20442;DHT22;10380;52.102;20.614;2024-03-08T07:28:43;0.70;99.90
20442;DHT22;10380;52.102;20.614;2024-03-08T07:36:11;0.90;99.90
20442;DHT22;10380;52.102;20.614;2024-03-08T07:38:38;1.00;99.90
20442;DHT22;10380;52.102;20.614;2024-03-08T08:00:48;1.70;99.90
20442;DHT22;10380;52.102;20.614;2024-03-08T08:05:45;2.00;99.90
20442;DHT22;10380;52.102;20.614;2024-03-08T08:08:12;2.10;99.90
20442;DHT22;10380;52.102;20.614;2024-03-08T08:18:02;2.50;99.90
20442;DHT22;10380;52.102;20.614;2024-03-08T08:25:27;2.90;99.90
20442;DHT22;10380;52.102;20.614;2024-03-08T08:27:55;3.00;99.90
20442;DHT22;10380;52.102;20.614;2024-03-08T08:30:22;3.00;99.90
20442;DHT22;10380;52.102;20.614;2024-03-08T08:32:49;3.10;99.90
20442;DHT22;10380;52.102;20.614;2024-03-08T08:35:17;3.30;99.90
20442;DHT22;10380;52.102;20.614;2024-03-08T08:37:45;3.50;99.90
20442;DHT22;10380;52.102;20.614;2024-03-08T08:40:12;3.40;99.90
20442;DHT22;10380;52.102;20.614;2024-03-08T08:45:15;3.60;99.90
20442;DHT22;10380;52.102;20.614;2024-03-08T08:47:50;3.70;99.90
20442;DHT22;10380;52.102;20.614;2024-03-08T08:50:17;3.80;99.90
20442;DHT22;10380;52.102;20.614;2024-03-08T08:55:20;3.90;99.90
20442;DHT22;10380;52.102;20.614;2024-03-08T08:57:48;3.90;99.90
20442;DHT22;10380;52.102;20.614;2024-03-08T09:00:16;4.00;99.90
20442;DHT22;10380;52.102;20.614;2024-03-08T09:02:43;4.00;99.90
20442;DHT22;10380;52.102;20.614;2024-03-08T09:07:44;4.20;99.90
20442;DHT22;10380;52.102;20.614;2024-03-08T09:10:12;4.30;99.90
20442;DHT22;10380;52.102;20.614;2024-03-08T09:12:44;4.40;99.90
20442;DHT22;10380;52.102;20.614;2024-03-08T09:15:11;4.60;99.90
20442;DHT22;10380;52.102;20.614;2024-03-08T09:17:40;4.70;99.90
20442;DHT22;10380;52.102;20.614;2024-03-08T09:20:08;4.70;99.90
20442;DHT22;10380;52.102;20.614;2024-03-08T09:22:37;4.80;99.90
20442;DHT22;10380;52.102;20.614;2024-03-08T09:25:05;5.30;99.90
20442;DHT22;10380;52.102;20.614;2024-03-08T09:27:33;4.90;99.90
20442;DHT22;10380;52.102;20.614;2024-03-08T09:42:26;5.00;99.90
20442;DHT22;10380;52.102;20.614;2024-03-08T09:47:22;5.20;99.90
20442;DHT22;10380;52.102;20.614;2024-03-08T09:49:52;5.10;99.90
20442;DHT22;10380;52.102;20.614;2024-03-08T09:52:19;5.20;99.90
20442;DHT22;10380;52.102;20.614;2024-03-08T09:54:46;5.30;99.90
20442;DHT22;10380;52.102;20.614;2024-03-08T09:57:13;5.30;99.90
20442;DHT22;10380;52.102;20.614;2024-03-08T09:59:44;5.30;99.90
20442;DHT22;10380;52.102;20.614;2024-03-08T10:02:15;5.70;99.90
20442;DHT22;10380;52.102;20.614;2024-03-08T10:04:43;5.40;99.90
20442;DHT22;10380;52.102;20.614;2024-03-08T10:07:13;5.50;99.90
20442;DHT22;10380;52.102;20.614;2024-03-08T10:09:40;5.40;99.90
20442;DHT22;10380;52.102;20.614;2024-03-08T10:12:15;5.50;99.90
20442;DHT22;10380;52.102;20.614;2024-03-08T10:14:42;5.40;99.90
20442;DHT22;10380;52.102;20.614;2024-03-08T10:17:09;5.60;99.90
20442;DHT22;10380;52.102;20.614;2024-03-08T10:19:36;5.70;99.90
20442;DHT22;10380;52.102;20.614;2024-03-08T10:22:03;5.70;99.90
20442;DHT22;10380;52.102;20.614;2024-03-08T10:24:32;5.70;99.90
20442;DHT22;10380;52.102;20.614;2024-03-08T10:27:03;7.20;99.90
20442;DHT22;10380;52.102;20.614;2024-03-08T10:29:32;5.80;99.90
20442;DHT22;10380;52.102;20.614;2024-03-08T10:31:59;5.60;99.90
20442;DHT22;10380;52.102;20.614;2024-03-08T10:34:26;5.90;99.90
20442;DHT22;10380;52.102;20.614;2024-03-08T10:36:55;5.90;99.90
20442;DHT22;10380;52.102;20.614;2024-03-08T10:39:25;6.10;99.90
20442;DHT22;10380;52.102;20.614;2024-03-08T10:41:58;6.00;99.90
20442;DHT22;10380;52.102;20.614;2024-03-08T10:47:20;6.10;99.90
20442;DHT22;10380;52.102;20.614;2024-03-08T10:50:02;6.20;99.90
20442;DHT22;10380;52.102;20.614;2024-03-08T10:52:32;6.20;99.90
20442;DHT22;10380;52.102;20.614;2024-03-08T10:55:01;6.50;99.90
20442;DHT22;10380;52.102;20.614;2024-03-08T10:57:28;6.10;99.90
20442;DHT22;10380;52.102;20.614;2024-03-08T10:59:56;6.20;99.90
20442;DHT22;10380;52.102;20.614;2024-03-08T11:02:25;6.30;99.90
20442;DHT22;10380;52.102;20.614;2024-03-08T11:04:54;6.30;99.90
20442;DHT22;10380;52.102;20.614;2024-03-08T11:07:25;6.40;99.90
20442;DHT22;10380;52.102;20.614;2024-03-08T11:09:55;6.40;99.90
20442;DHT22;10380;52.102;20.614;2024-03-08T11:14:59;6.40;99.90
20442;DHT22;10380;52.102;20.614;2024-03-08T11:19:56;6.70;99.90
20442;DHT22;10380;52.102;20.614;2024-03-08T11:22:31;6.20;99.90
20442;DHT22;10380;52.102;20.614;2024-03-08T11:25:03;6.60;99.90
20442;DHT22;10380;52.102;20.614;2024-03-08T11:27:36;7.90;99.90
20442;DHT22;10380;52.102;20.614;2024-03-08T11:30:07;6.60;99.90
20442;DHT22;10380;52.102;20.614;2024-03-08T11:32:45;6.40;99.90
20442;DHT22;10380;52.102;20.614;2024-03-08T11:35:21;6.60;99.90
20442;DHT22;10380;52.102;20.614;2024-03-08T11:40:18;6.90;99.90
20442;DHT22;10380;52.102;20.614;2024-03-08T11:42:48;7.00;99.90
20442;DHT22;10380;52.102;20.614;2024-03-08T11:45:16;8.30;99.90
20442;DHT22;10380;52.102;20.614;2024-03-08T11:47:44;6.90;99.90
20442;DHT22;10380;52.102;20.614;2024-03-08T11:50:16;7.80;99.90
20442;DHT22;10380;52.102;20.614;2024-03-08T11:52:46;7.40;99.90
20442;DHT22;10380;52.102;20.614;2024-03-08T11:55:14;9.30;99.90
20442;DHT22;10380;52.102;20.614;2024-03-08T11:57:41;8.70;99.90
20442;DHT22;10380;52.102;20.614;2024-03-08T12:00:16;10.30;99.90
20442;DHT22;10380;52.102;20.614;2024-03-08T12:03:05;9.10;99.90
20442;DHT22;10380;52.102;20.614;2024-03-08T12:05:33;9.80;99.90
20442;DHT22;10380;52.102;20.614;2024-03-08T12:08:02;10.40;99.90
20442;DHT22;10380;52.102;20.614;2024-03-08T12:10:29;10.80;99.90
20442;DHT22;10380;52.102;20.614;2024-03-08T12:12:59;13.60;99.90
20442;DHT22;10380;52.102;20.614;2024-03-08T12:15:28;11.90;99.90
20442;DHT22;10380;52.102;20.614;2024-03-08T12:17:56;12.60;99.90
20442;DHT22;10380;52.102;20.614;2024-03-08T12:20:25;13.40;99.90
20442;DHT22;10380;52.102;20.614;2024-03-08T12:22:53;13.80;99.90
20442;DHT22;10380;52.102;20.614;2024-03-08T12:25:20;13.60;99.90
20442;DHT22;10380;52.102;20.614;2024-03-08T12:27:48;16.30;99.90
20442;DHT22;10380;52.102;20.614;2024-03-08T12:30:22;14.80;99.90
20442;DHT22;10380;52.102;20.614;2024-03-08T12:32:54;15.50;99.90
20442;DHT22;10380;52.102;20.614;2024-03-08T12:35:27;15.50;99.90
20442;DHT22;10380;52.102;20.614;2024-03-08T12:37:59;15.80;99.90
20442;DHT22;10380;52.102;20.614;2024-03-08T12:40:31;15.90;99.90
20442;DHT22;10380;52.102;20.614;2024-03-08T12:42:59;15.90;99.90
20442;DHT22;10380;52.102;20.614;2024-03-08T12:45:26;15.80;99.90
20442;DHT22;10380;52.102;20.614;2024-03-08T12:47:54;15.90;99.90
20442;DHT22;10380;52.102;20.614;2024-03-08T12:50:22;16.10;99.90
20442;DHT22;10380;52.102;20.614;2024-03-08T12:52:49;16.40;99.90
20442;DHT22;10380;52.102;20.614;2024-03-08T12:55:20;16.30;99.90
20442;DHT22;10380;52.102;20.614;2024-03-08T12:57:47;16.10;99.90
20442;DHT22;10380;52.102;20.614;2024-03-08T13:00:15;16.00;99.90
20442;DHT22;10380;52.102;20.614;2024-03-08T13:02:46;16.10;99.40
20442;DHT22;10380;52.102;20.614;2024-03-08T13:05:14;15.80;99.90
20442;DHT22;10380;52.102;20.614;2024-03-08T13:07:41;15.70;98.50
20442;DHT22;10380;52.102;20.614;2024-03-08T13:10:13;14.90;99.90
20442;DHT22;10380;52.102;20.614;2024-03-08T13:12:42;15.00;99.90
20442;DHT22;10380;52.102;20.614;2024-03-08T13:15:10;14.60;99.90
20442;DHT22;10380;52.102;20.614;2024-03-08T13:17:42;14.70;97.90
20442;DHT22;10380;52.102;20.614;2024-03-08T13:20:11;14.20;99.90
20442;DHT22;10380;52.102;20.614;2024-03-08T13:22:48;14.30;99.90
20442;DHT22;10380;52.102;20.614;2024-03-08T13:25:15;14.40;99.90
20442;DHT22;10380;52.102;20.614;2024-03-08T13:27:42;14.20;99.90
20442;DHT22;10380;52.102;20.614;2024-03-08T13:30:10;13.90;99.90
20442;DHT22;10380;52.102;20.614;2024-03-08T13:32:41;14.10;98.60
20442;DHT22;10380;52.102;20.614;2024-03-08T13:35:11;13.80;99.90
20442;DHT22;10380;52.102;20.614;2024-03-08T13:37:41;13.70;99.90
20442;DHT22;10380;52.102;20.614;2024-03-08T13:40:09;13.60;99.90
20442;DHT22;10380;52.102;20.614;2024-03-08T13:42:48;13.60;99.90
20442;DHT22;10380;52.102;20.614;2024-03-08T13:45:16;13.40;98.90
20442;DHT22;10380;52.102;20.614;2024-03-08T13:50:18;12.90;99.90
20442;DHT22;10380;52.102;20.614;2024-03-08T13:52:49;12.50;99.90
20442;DHT22;10380;52.102;20.614;2024-03-08T13:55:21;12.40;99.90
20442;DHT22;10380;52.102;20.614;2024-03-08T13:57:54;12.20;99.90
20442;DHT22;10380;52.102;20.614;2024-03-08T14:00:21;12.00;99.90
20442;DHT22;10380;52.102;20.614;2024-03-08T14:02:50;12.00;99.90
20442;DHT22;10380;52.102;20.614;2024-03-08T14:05:16;12.00;99.90
20442;DHT22;10380;52.102;20.614;2024-03-08T14:07:46;12.10;99.90
20442;DHT22;10380;52.102;20.614;2024-03-08T14:10:17;12.20;99.90
20442;DHT22;10380;52.102;20.614;2024-03-08T14:12:48;12.00;99.90
20442;DHT22;10380;52.102;20.614;2024-03-08T14:15:17;11.70;99.90
20442;DHT22;10380;52.102;20.614;2024-03-08T14:17:44;12.20;99.90
20442;DHT22;10380;52.102;20.614;2024-03-08T14:20:14;12.00;99.90
20442;DHT22;10380;52.102;20.614;2024-03-08T14:22:41;11.80;99.90
20442;DHT22;10380;52.102;20.614;2024-03-08T14:25:08;11.90;99.90
20442;DHT22;10380;52.102;20.614;2024-03-08T14:27:45;11.60;99.90
20442;DHT22;10380;52.102;20.614;2024-03-08T14:30:12;11.50;99.90
20442;DHT22;10380;52.102;20.614;2024-03-08T14:32:40;11.20;99.90
20442;DHT22;10380;52.102;20.614;2024-03-08T14:35:08;10.90;99.90
20442;DHT22;10380;52.102;20.614;2024-03-08T14:37:38;11.10;99.90
20442;DHT22;10380;52.102;20.614;2024-03-08T14:40:05;11.10;99.90
20442;DHT22;10380;52.102;20.614;2024-03-08T14:42:32;10.50;99.90
20442;DHT22;10380;52.102;20.614;2024-03-08T14:44:59;10.40;99.90
20442;DHT22;10380;52.102;20.614;2024-03-08T14:47:27;10.70;99.90
20442;DHT22;10380;52.102;20.614;2024-03-08T14:49:55;10.20;99.90
20442;DHT22;10380;52.102;20.614;2024-03-08T14:52:22;10.10;99.90
20442;DHT22;10380;52.102;20.614;2024-03-08T14:54:55;9.90;99.90
20442;DHT22;10380;52.102;20.614;2024-03-08T14:57:25;10.10;99.90
20442;DHT22;10380;52.102;20.614;2024-03-08T14:59:52;10.10;99.90
20442;DHT22;10380;52.102;20.614;2024-03-08T15:02:19;9.60;99.90
20442;DHT22;10380;52.102;20.614;2024-03-08T15:04:47;10.20;99.90
20442;DHT22;10380;52.102;20.614;2024-03-08T15:07:25;10.30;99.90
20442;DHT22;10380;52.102;20.614;2024-03-08T15:09:53;9.30;99.90
20442;DHT22;10380;52.102;20.614;2024-03-08T15:12:23;9.60;99.90
20442;DHT22;10380;52.102;20.614;2024-03-08T15:14:53;9.60;99.90
20442;DHT22;10380;52.102;20.614;2024-03-08T15:17:22;9.50;99.90
20442;DHT22;10380;52.102;20.614;2024-03-08T15:19:49;9.50;99.90
20442;DHT22;10380;52.102;20.614;2024-03-08T15:22:17;9.70;99.90
20442;DHT22;10380;52.102;20.614;2024-03-08T15:24:45;9.50;99.90
20442;DHT22;10380;52.102;20.614;2024-03-08T15:27:12;9.40;99.90
20442;DHT22;10380;52.102;20.614;2024-03-08T15:29:39;9.20;99.90
20442;DHT22;10380;52.102;20.614;2024-03-08T15:32:06;9.70;99.90
20442;DHT22;10380;52.102;20.614;2024-03-08T15:37:05;9.30;99.90
20442;DHT22;10380;52.102;20.614;2024-03-08T15:39:32;9.20;99.90
20442;DHT22;10380;52.102;20.614;2024-03-08T15:42:00;9.20;99.90
20442;DHT22;10380;52.102;20.614;2024-03-08T15:44:27;9.10;99.90
20442;DHT22;10380;52.102;20.614;2024-03-08T15:46:55;9.00;99.90
20442;DHT22;10380;52.102;20.614;2024-03-08T15:49:23;9.10;99.90
20442;DHT22;10380;52.102;20.614;2024-03-08T15:51:53;8.90;99.90
20442;DHT22;10380;52.102;20.614;2024-03-08T15:54:20;9.00;99.90
20442;DHT22;10380;52.102;20.614;2024-03-08T15:56:48;8.80;99.90
20442;DHT22;10380;52.102;20.614;2024-03-08T15:59:15;8.70;99.90
20442;DHT22;10380;52.102;20.614;2024-03-08T16:01:43;8.40;99.90
20442;DHT22;10380;52.102;20.614;2024-03-08T16:04:15;8.50;99.90
20442;DHT22;10380;52.102;20.614;2024-03-08T16:06:42;8.30;99.90
20442;DHT22;10380;52.102;20.614;2024-03-08T16:09:11;8.30;99.90
20442;DHT22;10380;52.102;20.614;2024-03-08T16:14:09;8.50;99.90
20442;DHT22;10380;52.102;20.614;2024-03-08T16:16:38;8.20;99.90
20442;DHT22;10380;52.102;20.614;2024-03-08T16:19:06;8.10;99.90
20442;DHT22;10380;52.102;20.614;2024-03-08T16:21:35;7.90;99.90
20442;DHT22;10380;52.102;20.614;2024-03-08T16:24:03;7.80;99.90
20442;DHT22;10380;52.102;20.614;2024-03-08T16:26:30;7.70;99.90
20442;DHT22;10380;52.102;20.614;2024-03-08T16:29:02;7.70;99.90
20442;DHT22;10380;52.102;20.614;2024-03-08T16:33:58;7.50;99.90
20442;DHT22;10380;52.102;20.614;2024-03-08T16:36:26;7.50;99.90
20442;DHT22;10380;52.102;20.614;2024-03-08T16:38:54;7.30;99.90
20442;DHT22;10380;52.102;20.614;2024-03-08T16:41:20;7.30;99.90
20442;DHT22;10380;52.102;20.614;2024-03-08T16:48:43;6.90;99.90
20442;DHT22;10380;52.102;20.614;2024-03-08T16:58:40;6.60;99.90
20442;DHT22;10380;52.102;20.614;2024-03-08T17:03:38;6.50;99.90
20442;DHT22;10380;52.102;20.614;2024-03-08T17:08:49;6.40;99.90
20442;DHT22;10380;52.102;20.614;2024-03-08T17:11:18;6.40;99.90
20442;DHT22;10380;52.102;20.614;2024-03-08T17:13:48;6.30;99.90
20442;DHT22;10380;52.102;20.614;2024-03-08T17:16:15;6.20;99.90
20442;DHT22;10380;52.102;20.614;2024-03-08T17:21:10;6.10;99.90
20442;DHT22;10380;52.102;20.614;2024-03-08T17:26:07;6.00;99.90
20442;DHT22;10380;52.102;20.614;2024-03-08T17:28:35;5.90;99.90
20442;DHT22;10380;52.102;20.614;2024-03-08T17:33:34;5.80;99.90
20442;DHT22;10380;52.102;20.614;2024-03-08T17:36:02;5.50;99.90
20442;DHT22;10380;52.102;20.614;2024-03-08T17:38:33;5.50;99.90
20442;DHT22;10380;52.102;20.614;2024-03-08T17:45:55;5.20;99.90
20442;DHT22;10380;52.102;20.614;2024-03-08T17:48:25;6.00;99.90
20442;DHT22;10380;52.102;20.614;2024-03-08T17:50:52;5.10;99.90
20442;DHT22;10380;52.102;20.614;2024-03-08T17:53:21;4.90;99.90
20442;DHT22;10380;52.102;20.614;2024-03-08T17:55:48;4.80;99.90
20442;DHT22;10380;52.102;20.614;2024-03-08T17:58:18;4.70;99.90
20442;DHT22;10380;52.102;20.614;2024-03-08T18:05:42;4.40;99.90
20442;DHT22;10380;52.102;20.614;2024-03-08T18:08:12;4.30;99.90
20442;DHT22;10380;52.102;20.614;2024-03-08T18:13:08;4.30;99.90
20442;DHT22;10380;52.102;20.614;2024-03-08T18:15:45;4.20;99.90
20442;DHT22;10380;52.102;20.614;2024-03-08T18:18:14;4.20;99.90
20442;DHT22;10380;52.102;20.614;2024-03-08T18:20:42;4.00;99.90
20442;DHT22;10380;52.102;20.614;2024-03-08T18:23:15;3.80;99.90
20442;DHT22;10380;52.102;20.614;2024-03-08T18:30:41;3.80;99.90
20442;DHT22;10380;52.102;20.614;2024-03-08T18:35:40;3.60;99.90
20442;DHT22;10380;52.102;20.614;2024-03-08T18:40:37;3.50;99.90
20442;DHT22;10380;52.102;20.614;2024-03-08T18:43:04;3.60;99.90
20442;DHT22;10380;52.102;20.614;2024-03-08T18:48:02;3.40;99.90
20442;DHT22;10380;52.102;20.614;2024-03-08T18:50:33;3.30;99.90
20442;DHT22;10380;52.102;20.614;2024-03-08T19:03:06;3.10;99.90
20442;DHT22;10380;52.102;20.614;2024-03-08T19:05:37;3.00;99.90
20442;DHT22;10380;52.102;20.614;2024-03-08T19:08:08;3.00;99.90
20442;DHT22;10380;52.102;20.614;2024-03-08T19:10:36;2.90;99.90
20442;DHT22;10380;52.102;20.614;2024-03-08T19:15:34;2.90;99.90
20442;DHT22;10380;52.102;20.614;2024-03-08T19:18:01;2.80;99.90
20442;DHT22;10380;52.102;20.614;2024-03-08T19:23:01;2.70;99.90
20442;DHT22;10380;52.102;20.614;2024-03-08T19:25:30;2.60;99.90
20442;DHT22;10380;52.102;20.614;2024-03-08T19:28:02;2.60;99.90
20442;DHT22;10380;52.102;20.614;2024-03-08T19:33:00;2.50;99.90
20442;DHT22;10380;52.102;20.614;2024-03-08T19:35:28;2.40;99.90
20442;DHT22;10380;52.102;20.614;2024-03-08T19:37:58;2.10;99.90
20442;DHT22;10380;52.102;20.614;2024-03-08T19:40:30;2.30;99.90
20442;DHT22;10380;52.102;20.614;2024-03-08T19:43:01;2.20;99.90
20442;DHT22;10380;52.102;20.614;2024-03-08T19:45:30;2.30;99.90
20442;DHT22;10380;52.102;20.614;2024-03-08T19:48:01;2.20;99.90
20442;DHT22;10380;52.102;20.614;2024-03-08T19:50:32;2.20;99.90
20442;DHT22;10380;52.102;20.614;2024-03-08T19:53:00;2.20;99.90
20442;DHT22;10380;52.102;20.614;2024-03-08T19:55:35;2.10;99.90
20442;DHT22;10380;52.102;20.614;2024-03-08T19:58:03;2.10;99.90
20442;DHT22;10380;52.102;20.614;2024-03-08T20:00:32;2.10;99.90
20442;DHT22;10380;52.102;20.614;2024-03-08T20:03:02;2.10;99.90
20442;DHT22;10380;52.102;20.614;2024-03-08T20:05:31;2.00;99.90
20442;DHT22;10380;52.102;20.614;2024-03-08T20:07:59;1.60;99.90
20442;DHT22;10380;52.102;20.614;2024-03-08T20:10:36;1.90;99.90
20442;DHT22;10380;52.102;20.614;2024-03-08T20:13:05;1.90;99.90
20442;DHT22;10380;52.102;20.614;2024-03-08T20:15:35;1.80;99.90
20442;DHT22;10380;52.102;20.614;2024-03-08T20:18:06;1.80;99.90
20442;DHT22;10380;52.102;20.614;2024-03-08T20:20:36;1.70;99.90
20442;DHT22;10380;52.102;20.614;2024-03-08T20:23:05;1.90;99.90
20442;DHT22;10380;52.102;20.614;2024-03-08T20:33:01;1.70;99.90
20442;DHT22;10380;52.102;20.614;2024-03-08T20:35:32;1.60;99.90
20442;DHT22;10380;52.102;20.614;2024-03-08T20:38:03;1.50;99.90
20442;DHT22;10380;52.102;20.614;2024-03-08T20:43:13;1.50;99.90
20442;DHT22;10380;52.102;20.614;2024-03-08T20:45:44;1.40;99.90
20442;DHT22;10380;52.102;20.614;2024-03-08T20:48:13;1.50;99.90
20442;DHT22;10380;52.102;20.614;2024-03-08T20:53:09;1.30;99.90
20442;DHT22;10380;52.102;20.614;2024-03-08T21:08:00;1.20;99.90
20442;DHT22;10380;52.102;20.614;2024-03-08T21:10:28;1.20;99.90
20442;DHT22;10380;52.102;20.614;2024-03-08T21:12:57;1.10;99.90
20442;DHT22;10380;52.102;20.614;2024-03-08T21:20:21;1.00;99.90
20442;DHT22;10380;52.102;20.614;2024-03-08T21:25:17;1.00;99.90
20442;DHT22;10380;52.102;20.614;2024-03-08T21:27:46;1.00;99.90
20442;DHT22;10380;52.102;20.614;2024-03-08T21:30:16;1.10;99.90
20442;DHT22;10380;52.102;20.614;2024-03-08T21:32:52;1.60;99.90
20442;DHT22;10380;52.102;20.614;2024-03-08T21:40:17;0.80;99.90
20442;DHT22;10380;52.102;20.614;2024-03-08T21:42:49;0.90;99.90
20442;DHT22;10380;52.102;20.614;2024-03-08T21:52:42;0.70;99.90
20442;DHT22;10380;52.102;20.614;2024-03-08T21:55:11;0.70;99.90
20442;DHT22;10380;52.102;20.614;2024-03-08T22:05:07;0.70;99.90